Time;durP1;ratioP1;P1;durP2;ratioP2;P2;SDS_P1;SDS_P2;PMS_P1;PMS_P2;Temp;Humidity;BMP_temperature;BMP_pressure;BME280_temperature;BME280_humidity;BME280_pressure;Samples;Min_cycle;Max_cycle;Signal;HPM_P1;HPM_P2
2023/07/22 00:01:13;;;;;;;9.18;8.25;;;16.50;99.90;;;;;;4996436;28;20029;-45
2023/07/22 00:03:58;;;;;;;9.85;8.55;;;16.50;99.90;;;;;;4994552;28;20415;-43
2023/07/22 00:06:44;;;;;;;9.85;8.93;;;16.40;99.90;;;;;;4995825;28;20027;-46
2023/07/22 00:09:33;;;;;;;9.95;9.15;;;16.40;99.90;;;;;;4989290;28;20089;-43
2023/07/22 00:12:19;;;;;;;10.15;8.95;;;16.40;99.90;;;;;;4996094;28;20088;-45
2023/07/22 00:15:06;;;;;;;10.45;9.02;;;16.40;99.90;;;;;;4994800;28;20430;-47
2023/07/22 00:17:52;;;;;;;10.38;9.38;;;16.30;99.90;;;;;;4994285;28;20041;-47
2023/07/22 00:20:38;;;;;;;9.75;8.75;;;16.40;99.90;;;;;;4994713;28;20026;-45
2023/07/22 00:23:24;;;;;;;10.85;9.75;;;16.20;99.90;;;;;;4994606;28;20022;-49
2023/07/22 00:26:10;;;;;;;10.95;9.82;;;16.30;99.90;;;;;;4994075;28;20034;-48
2023/07/22 00:28:56;;;;;;;10.93;9.80;;;16.30;99.90;;;;;;4995076;28;20026;-47
2023/07/22 00:31:43;;;;;;;11.57;9.48;;;16.30;99.90;;;;;;4994604;28;20030;-48
2023/07/22 00:34:29;;;;;;;11.70;10.55;;;16.20;99.90;;;;;;4994521;28;20034;-44
2023/07/22 00:37:16;;;;;;;11.43;10.40;;;16.30;99.90;;;;;;4995263;28;20026;-43
2023/07/22 00:40:06;;;;;;;11.38;10.27;;;16.20;99.90;;;;;;4976469;28;20031;-45
2023/07/22 00:42:51;;;;;;;11.45;9.77;;;16.30;99.90;;;;;;4974937;28;20069;-46
2023/07/22 00:45:37;;;;;;;11.95;10.85;;;16.20;99.90;;;;;;4975207;28;20385;-45
2023/07/22 00:48:25;;;;;;;11.80;10.68;;;16.20;99.90;;;;;;4975260;28;20038;-44
2023/07/22 00:51:10;;;;;;;11.82;10.73;;;16.20;99.90;;;;;;4974653;28;20066;-50
2023/07/22 00:53:56;;;;;;;11.10;10.10;;;16.20;99.90;;;;;;4987801;28;20048;-49
2023/07/22 00:56:44;;;;;;;11.95;9.90;;;16.20;99.90;;;;;;4993360;28;20030;-45
2023/07/22 00:59:31;;;;;;;12.48;11.35;;;16.10;99.90;;;;;;4995303;28;20015;-44
2023/07/22 01:02:18;;;;;;;10.93;9.70;;;16.10;99.90;;;;;;4994117;28;20037;-45
2023/07/22 01:05:05;;;;;;;11.75;10.55;;;16.00;99.90;;;;;;4993753;28;20112;-46
2023/07/22 01:07:51;;;;;;;11.57;10.38;;;16.10;99.90;;;;;;4993437;28;20034;-45
2023/07/22 01:10:38;;;;;;;10.10;9.10;;;16.20;99.90;;;;;;4993862;28;20041;-46
2023/07/22 01:13:24;;;;;;;11.07;10.07;;;16.30;99.90;;;;;;4994914;28;20491;-45
2023/07/22 01:16:10;;;;;;;11.40;10.30;;;16.30;99.90;;;;;;4993441;28;20399;-47
2023/07/22 01:18:57;;;;;;;12.15;11.05;;;16.40;99.90;;;;;;4993445;28;20118;-45
2023/07/22 01:21:43;;;;;;;10.57;9.57;;;16.50;99.90;;;;;;4993632;28;20026;-45
2023/07/22 01:24:29;;;;;;;10.77;9.73;;;16.40;99.90;;;;;;4993670;28;20038;-48
2023/07/22 01:27:18;;;;;;;11.20;10.10;;;16.40;99.90;;;;;;4994691;28;20035;-45
2023/07/22 01:30:05;;;;;;;11.73;9.48;;;16.50;99.90;;;;;;4993477;28;20089;-52
2023/07/22 01:32:52;;;;;;;11.50;10.40;;;16.50;99.90;;;;;;4994593;28;20037;-50
2023/07/22 01:35:38;;;;;;;11.82;10.73;;;16.40;99.90;;;;;;4994015;28;20525;-49
2023/07/22 01:38:24;;;;;;;11.35;10.27;;;16.40;99.90;;;;;;4992632;28;20034;-47
2023/07/22 01:41:10;;;;;;;12.40;11.15;;;16.20;99.90;;;;;;4993369;28;20022;-49
2023/07/22 01:43:56;;;;;;;12.75;11.52;;;16.10;99.90;;;;;;4993288;28;20038;-51
2023/07/22 01:46:41;;;;;;;13.02;11.82;;;16.00;99.90;;;;;;4992384;28;20031;-50
2023/07/22 01:49:27;;;;;;;13.75;12.45;;;15.90;99.90;;;;;;4993719;28;20031;-47
2023/07/22 01:52:13;;;;;;;12.15;10.95;;;15.90;99.90;;;;;;4992754;28;20506;-45
2023/07/22 01:54:59;;;;;;;12.35;11.25;;;15.80;99.90;;;;;;4994006;28;20030;-44
2023/07/22 01:57:45;;;;;;;13.30;11.95;;;15.80;99.90;;;;;;4992863;28;20026;-45
2023/07/22 02:00:31;;;;;;;13.73;12.07;;;15.80;99.90;;;;;;4993426;28;20038;-45
2023/07/22 02:03:17;;;;;;;14.45;12.98;;;15.80;99.90;;;;;;4992778;28;20034;-45
2023/07/22 02:06:04;;;;;;;13.70;12.50;;;15.90;99.90;;;;;;4993974;28;20027;-48
2023/07/22 02:08:50;;;;;;;12.98;11.68;;;15.80;99.90;;;;;;4992742;28;20121;-44
2023/07/22 02:11:36;;;;;;;14.00;11.30;;;15.80;99.90;;;;;;4992887;28;20039;-43
2023/07/22 02:14:22;;;;;;;14.02;12.70;;;15.90;99.90;;;;;;4993357;28;20034;-44
2023/07/22 02:17:09;;;;;;;14.70;12.05;;;16.00;99.90;;;;;;4991933;28;20503;-45
2023/07/22 02:19:55;;;;;;;15.05;12.52;;;15.90;99.90;;;;;;4992680;28;20519;-47
2023/07/22 02:22:41;;;;;;;13.23;11.80;;;15.90;99.90;;;;;;4992421;28;20060;-47
2023/07/22 02:25:27;;;;;;;12.27;11.18;;;15.90;99.90;;;;;;4992966;28;20031;-48
2023/07/22 02:28:13;;;;;;;14.13;11.77;;;16.00;99.90;;;;;;4992013;28;20137;-44
2023/07/22 02:31:06;;;;;;;13.02;11.75;;;16.00;99.90;;;;;;4992859;28;20053;-45
2023/07/22 02:33:52;;;;;;;13.52;12.13;;;16.00;99.90;;;;;;4992318;28;20464;-46
2023/07/22 02:36:38;;;;;;;12.70;11.45;;;16.00;99.90;;;;;;4992688;28;20040;-45
2023/07/22 02:39:24;;;;;;;12.85;11.55;;;16.10;99.90;;;;;;4992510;28;20022;-46
2023/07/22 02:42:10;;;;;;;12.45;11.32;;;15.90;99.90;;;;;;4992197;28;20027;-50
2023/07/22 02:44:55;;;;;;;15.82;11.57;;;15.90;99.90;;;;;;4992090;28;20035;-47
2023/07/22 02:47:42;;;;;;;12.52;11.20;;;15.90;99.90;;;;;;4992365;28;20034;-46
2023/07/22 02:50:28;;;;;;;11.52;10.32;;;15.90;99.90;;;;;;4992091;28;20030;-47
2023/07/22 02:53:14;;;;;;;12.43;10.82;;;15.80;99.90;;;;;;4992602;28;20050;-47
2023/07/22 02:56:00;;;;;;;11.15;10.05;;;15.80;99.90;;;;;;4992113;28;20026;-46
2023/07/22 02:58:47;;;;;;;11.85;10.60;;;15.80;99.90;;;;;;4991990;28;20505;-46
2023/07/22 03:01:33;;;;;;;12.35;10.38;;;15.80;99.90;;;;;;4992369;28;20038;-47
2023/07/22 03:04:19;;;;;;;10.30;9.30;;;15.70;99.90;;;;;;4991742;28;20038;-47
2023/07/22 03:07:06;;;;;;;11.60;10.50;;;15.80;99.90;;;;;;4992204;28;20116;-45
2023/07/22 03:09:52;;;;;;;10.82;9.73;;;15.70;99.90;;;;;;4991882;28;20534;-45
2023/07/22 03:12:38;;;;;;;11.80;10.15;;;15.80;99.90;;;;;;4992454;28;20692;-44
2023/07/22 03:15:28;;;;;;;12.57;10.88;;;15.70;99.90;;;;;;4992150;28;20050;-42
2023/07/22 03:18:14;;;;;;;13.02;10.90;;;15.60;99.90;;;;;;4991420;28;20109;-46
2023/07/22 03:21:00;;;;;;;12.27;10.93;;;15.80;99.90;;;;;;4992278;28;20022;-44
2023/07/22 03:23:46;;;;;;;10.82;9.73;;;15.70;99.90;;;;;;4991818;28;20023;-45
2023/07/22 03:26:32;;;;;;;11.57;10.50;;;15.60;99.90;;;;;;4992611;28;20512;-45
2023/07/22 03:29:18;;;;;;;11.07;9.93;;;15.60;99.90;;;;;;4994866;28;20030;-45
2023/07/22 03:32:04;;;;;;;12.27;11.07;;;15.50;99.90;;;;;;4996735;28;20030;-45
2023/07/22 03:34:50;;;;;;;11.60;10.40;;;15.50;99.90;;;;;;4996480;28;20383;-47
2023/07/22 03:37:36;;;;;;;14.32;10.88;;;15.40;99.90;;;;;;4995866;28;20027;-44
2023/07/22 03:40:28;;;;;;;12.80;11.48;;;15.60;99.90;;;;;;4996273;28;20109;-45
2023/07/22 03:43:13;;;;;;;12.00;10.40;;;15.40;99.90;;;;;;4995359;28;20495;-48
2023/07/22 03:45:59;;;;;;;13.13;10.80;;;15.50;99.90;;;;;;4994990;28;20317;-52
2023/07/22 03:48:45;;;;;;;13.05;11.73;;;15.50;99.90;;;;;;4996456;28;20499;-50
2023/07/22 03:51:33;;;;;;;11.00;9.98;;;15.50;99.90;;;;;;4995628;28;20033;-46
2023/07/22 03:54:18;;;;;;;13.68;11.52;;;15.50;99.90;;;;;;4996529;28;20031;-45
2023/07/22 03:57:06;;;;;;;14.05;11.13;;;15.40;99.90;;;;;;4995088;28;20081;-45
2023/07/22 03:59:52;;;;;;;12.50;11.20;;;15.60;99.90;;;;;;4994813;28;20710;-44
2023/07/22 04:02:38;;;;;;;13.20;11.85;;;15.50;99.90;;;;;;4995702;28;20034;-46
2023/07/22 04:05:24;;;;;;;12.27;10.90;;;15.50;99.90;;;;;;4995256;28;20033;-45
2023/07/22 04:08:10;;;;;;;12.45;11.05;;;15.50;99.90;;;;;;4993991;28;20173;-46
2023/07/22 04:10:57;;;;;;;14.30;11.95;;;15.50;99.90;;;;;;4995046;28;20049;-48
2023/07/22 04:13:43;;;;;;;15.20;11.80;;;15.60;99.90;;;;;;4994758;28;20027;-49
2023/07/22 04:16:29;;;;;;;13.45;11.38;;;15.50;99.90;;;;;;4993815;28;20073;-49
2023/07/22 04:19:16;;;;;;;12.90;11.57;;;15.60;99.90;;;;;;4994515;28;20057;-46
2023/07/22 04:22:04;;;;;;;12.27;11.02;;;15.70;99.90;;;;;;4994646;28;20034;-46
2023/07/22 04:24:50;;;;;;;12.32;11.23;;;15.80;99.90;;;;;;4994689;28;20081;-45
2023/07/22 04:27:36;;;;;;;13.70;12.25;;;15.70;99.90;;;;;;4994445;28;20427;-45
2023/07/22 04:30:21;;;;;;;13.60;12.00;;;15.60;99.90;;;;;;4994322;28;20034;-45
2023/07/22 04:33:10;;;;;;;14.63;11.57;;;15.60;99.90;;;;;;4994879;28;20062;-48
2023/07/22 04:35:58;;;;;;;15.80;12.63;;;15.60;99.90;;;;;;4994532;28;20029;-46
2023/07/22 04:38:44;;;;;;;12.18;10.27;;;15.50;99.90;;;;;;4993192;28;20030;-50
2023/07/22 04:41:30;;;;;;;14.13;12.48;;;15.60;99.90;;;;;;4992588;28;20061;-48
2023/07/22 04:44:17;;;;;;;14.10;11.77;;;15.60;99.90;;;;;;4990699;28;20027;-46
2023/07/22 04:47:03;;;;;;;15.75;10.93;;;15.70;99.90;;;;;;4992168;28;20084;-47
2023/07/22 04:49:49;;;;;;;12.40;11.07;;;15.80;99.90;;;;;;4995718;28;20507;-51
2023/07/22 04:52:36;;;;;;;13.52;11.60;;;15.90;99.90;;;;;;4994401;28;20035;-48
2023/07/22 04:55:22;;;;;;;13.00;11.68;;;15.90;99.90;;;;;;4993314;28;20026;-48
2023/07/22 04:58:10;;;;;;;12.05;10.85;;;15.90;99.90;;;;;;4993708;28;20573;-52
2023/07/22 05:00:57;;;;;;;13.57;10.95;;;16.00;99.90;;;;;;4993354;28;20029;-52
2023/07/22 05:03:43;;;;;;;12.75;11.13;;;16.00;99.90;;;;;;4993984;28;20031;-50
2023/07/22 05:06:29;;;;;;;14.85;11.32;;;16.00;99.90;;;;;;4993673;28;20038;-49
2023/07/22 05:09:15;;;;;;;18.17;11.55;;;16.00;99.90;;;;;;4994255;28;20031;-48
2023/07/22 05:12:01;;;;;;;12.27;11.02;;;16.00;99.90;;;;;;4993060;28;20097;-49
2023/07/22 05:14:48;;;;;;;12.20;11.02;;;16.00;99.90;;;;;;4993066;28;20026;-49
2023/07/22 05:17:34;;;;;;;12.75;11.43;;;16.00;99.90;;;;;;4992703;28;20066;-52
2023/07/22 05:20:20;;;;;;;12.40;10.38;;;16.10;99.90;;;;;;4993486;28;20031;-50
2023/07/22 05:23:07;;;;;;;13.07;10.88;;;16.20;99.90;;;;;;4993698;28;20439;-54
2023/07/22 05:25:54;;;;;;;13.77;11.40;;;16.30;99.90;;;;;;4993398;28;20037;-49
2023/07/22 05:28:39;;;;;;;14.02;10.52;;;16.40;99.90;;;;;;4993263;28;20522;-51
2023/07/22 05:31:25;;;;;;;13.20;11.77;;;16.50;99.90;;;;;;4992599;28;20045;-52
2023/07/22 05:34:12;;;;;;;13.30;11.23;;;16.40;99.90;;;;;;4993420;28;20034;-50
2023/07/22 05:36:58;;;;;;;13.93;11.80;;;16.30;99.90;;;;;;4992867;28;20073;-54
2023/07/22 05:39:44;;;;;;;15.30;11.13;;;16.20;99.90;;;;;;4993120;28;20018;-48
2023/07/22 05:42:30;;;;;;;16.90;11.73;;;16.20;99.90;;;;;;4983713;28;20061;-50
2023/07/22 05:45:16;;;;;;;14.98;10.98;;;16.00;99.90;;;;;;4992997;28;20026;-49
2023/07/22 05:48:02;;;;;;;13.05;10.77;;;16.10;99.90;;;;;;4992490;28;20120;-44
2023/07/22 05:50:48;;;;;;;13.75;11.75;;;16.20;99.90;;;;;;4993622;28;20026;-46
2023/07/22 05:53:34;;;;;;;13.98;11.20;;;16.20;99.90;;;;;;4995317;28;20046;-47
2023/07/22 05:56:19;;;;;;;13.43;10.77;;;16.20;99.90;;;;;;4993790;28;20459;-46
2023/07/22 05:59:05;;;;;;;16.08;11.23;;;16.10;99.90;;;;;;4992842;28;20031;-48
2023/07/22 06:01:51;;;;;;;15.30;10.43;;;16.20;99.90;;;;;;4992447;28;20027;-47
2023/07/22 06:04:38;;;;;;;16.30;11.23;;;16.50;99.90;;;;;;4992118;28;20039;-44
2023/07/22 06:07:25;;;;;;;16.05;10.88;;;16.70;99.90;;;;;;4992888;28;20447;-44
2023/07/22 06:10:11;;;;;;;16.08;10.77;;;16.40;99.90;;;;;;4992757;28;20581;-46
2023/07/22 06:12:57;;;;;;;13.25;11.00;;;16.50;99.90;;;;;;4992513;28;20113;-50
2023/07/22 06:15:43;;;;;;;13.10;10.77;;;16.60;99.90;;;;;;4992859;28;20030;-42
2023/07/22 06:18:29;;;;;;;12.70;10.10;;;16.80;99.90;;;;;;4992673;28;20026;-42
2023/07/22 06:21:15;;;;;;;13.48;10.77;;;16.70;99.90;;;;;;4992602;28;20026;-46
2023/07/22 06:24:01;;;;;;;14.43;10.32;;;16.90;99.90;;;;;;4992549;28;20034;-48
2023/07/22 06:26:46;;;;;;;13.70;10.15;;;17.00;99.90;;;;;;4992145;28;20038;-49
2023/07/22 06:29:32;;;;;;;16.88;12.43;;;16.90;99.90;;;;;;4992317;28;20027;-45
2023/07/22 06:32:18;;;;;;;13.98;9.73;;;16.70;99.90;;;;;;4991919;28;20137;-46
2023/07/22 06:35:05;;;;;;;13.98;10.40;;;16.60;99.90;;;;;;4992360;28;20057;-47
2023/07/22 06:37:51;;;;;;;17.65;11.75;;;16.60;99.90;;;;;;4992392;28;20030;-47
2023/07/22 06:40:37;;;;;;;18.02;11.02;;;16.60;99.90;;;;;;4992541;28;20375;-48
2023/07/22 06:43:23;;;;;;;17.20;10.27;;;16.60;99.90;;;;;;4990877;28;20489;-48
2023/07/22 06:46:09;;;;;;;12.88;9.73;;;16.80;99.90;;;;;;4991889;28;20030;-49
2023/07/22 06:48:55;;;;;;;13.38;9.70;;;17.00;99.90;;;;;;4993172;28;20403;-52
2023/07/22 06:51:41;;;;;;;13.18;9.82;;;17.10;99.90;;;;;;4993263;28;20041;-50
2023/07/22 06:54:27;;;;;;;11.98;8.70;;;17.30;99.90;;;;;;4992297;28;20034;-51
2023/07/22 06:57:13;;;;;;;11.88;9.13;;;17.50;98.70;;;;;;4993054;28;20035;-52
2023/07/22 06:59:59;;;;;;;11.27;8.30;;;17.50;98.40;;;;;;4991665;28;20534;-48
2023/07/22 07:02:45;;;;;;;12.30;9.32;;;17.50;98.50;;;;;;4992912;28;20446;-49
2023/07/22 07:05:31;;;;;;;10.57;8.00;;;17.60;98.40;;;;;;4992900;28;20113;-50
2023/07/22 07:08:17;;;;;;;8.70;7.53;;;17.60;97.40;;;;;;4990490;28;20408;-51
2023/07/22 07:11:04;;;;;;;8.27;6.75;;;17.70;98.00;;;;;;4991054;28;20041;-52
2023/07/22 07:13:50;;;;;;;9.50;6.90;;;17.80;97.50;;;;;;4990728;28;20038;-50
2023/07/22 07:16:36;;;;;;;12.50;7.75;;;18.00;96.90;;;;;;4990802;28;20391;-48
2023/07/22 07:19:22;;;;;;;9.23;7.20;;;18.00;96.50;;;;;;4992137;28;20467;-50
2023/07/22 07:22:08;;;;;;;9.63;6.82;;;18.20;96.20;;;;;;4992296;28;20033;-49
2023/07/22 07:24:54;;;;;;;10.65;7.30;;;18.20;96.30;;;;;;4992910;28;20034;-53
2023/07/22 07:27:40;;;;;;;9.68;7.15;;;18.40;95.30;;;;;;4992024;28;20085;-46
2023/07/22 07:30:26;;;;;;;8.80;6.78;;;18.20;95.20;;;;;;4992466;28;20093;-49
2023/07/22 07:33:12;;;;;;;10.27;7.18;;;18.20;95.20;;;;;;4992089;28;20117;-46
2023/07/22 07:35:58;;;;;;;7.82;6.80;;;18.20;95.50;;;;;;4992505;28;20022;-44
2023/07/22 07:38:44;;;;;;;8.90;6.45;;;18.30;95.90;;;;;;4991187;28;20062;-49
2023/07/22 07:41:30;;;;;;;9.80;7.25;;;18.20;94.80;;;;;;4992496;28;20042;-45
2023/07/22 07:44:16;;;;;;;9.32;7.00;;;17.90;94.80;;;;;;4992762;28;20033;-49
2023/07/22 07:47:02;;;;;;;9.38;6.43;;;17.80;94.90;;;;;;4991825;28;20030;-45
2023/07/22 07:49:48;;;;;;;9.60;7.53;;;18.10;95.20;;;;;;4991757;28;20037;-44
2023/07/22 07:52:34;;;;;;;9.65;7.57;;;18.40;94.30;;;;;;4992483;28;20022;-51
2023/07/22 07:55:20;;;;;;;9.10;7.80;;;18.50;95.00;;;;;;4991537;28;20030;-47
2023/07/22 07:58:06;;;;;;;8.77;6.85;;;18.60;94.60;;;;;;4991320;28;20117;-48
2023/07/22 08:00:52;;;;;;;9.43;8.07;;;18.80;94.40;;;;;;4991294;28;20038;-50
2023/07/22 08:03:39;;;;;;;11.02;6.90;;;18.60;94.30;;;;;;4991794;28;20089;-51
2023/07/22 08:06:25;;;;;;;8.65;6.72;;;18.60;94.40;;;;;;4991381;28;20022;-47
2023/07/22 08:09:16;;;;;;;8.93;7.55;;;18.60;93.90;;;;;;4991097;28;20102;-49
2023/07/22 08:12:03;;;;;;;10.25;7.00;;;18.60;94.00;;;;;;4992043;28;20030;-48
2023/07/22 08:14:49;;;;;;;10.15;7.70;;;18.50;94.30;;;;;;4996041;28;20077;-50
2023/07/22 08:17:34;;;;;;;12.25;7.60;;;18.80;94.00;;;;;;4995541;28;20547;-46
2023/07/22 08:20:23;;;;;;;8.77;6.82;;;18.80;93.70;;;;;;4991289;28;20372;-47
2023/07/22 08:23:09;;;;;;;10.27;6.75;;;18.70;93.90;;;;;;4993189;28;20037;-46
2023/07/22 08:25:55;;;;;;;10.00;7.47;;;18.80;93.80;;;;;;4990894;28;20062;-50
2023/07/22 08:28:40;;;;;;;8.82;7.07;;;18.70;93.50;;;;;;4991496;28;20507;-50
2023/07/22 08:31:26;;;;;;;8.80;6.90;;;18.70;93.80;;;;;;4994248;28;20046;-49
2023/07/22 08:34:12;;;;;;;13.13;7.85;;;18.80;93.70;;;;;;4988522;28;20117;-47
2023/07/22 08:36:58;;;;;;;9.23;6.43;;;18.70;93.70;;;;;;4991898;28;20506;-48
2023/07/22 08:39:44;;;;;;;7.20;6.28;;;18.80;94.30;;;;;;4990007;28;20039;-51
2023/07/22 08:42:32;;;;;;;10.38;7.22;;;19.00;93.40;;;;;;4993666;28;20037;-52
2023/07/22 08:45:19;;;;;;;7.25;6.55;;;19.30;92.90;;;;;;4991043;28;20042;-48
2023/07/22 08:48:07;;;;;;;7.57;5.70;;;19.40;92.10;;;;;;4994127;28;20045;-49
2023/07/22 08:50:55;;;;;;;15.32;10.18;;;19.60;92.20;;;;;;4995071;28;20391;-45
2023/07/22 08:53:43;;;;;;;8.32;6.60;;;19.80;92.00;;;;;;4993654;28;20494;-47
2023/07/22 08:56:29;;;;;;;9.63;6.63;;;19.90;91.50;;;;;;4994252;28;20018;-50
2023/07/22 08:59:17;;;;;;;9.05;7.40;;;19.70;92.30;;;;;;4992883;28;20089;-45
2023/07/22 09:02:03;;;;;;;10.55;7.22;;;19.60;91.70;;;;;;4991657;28;20036;-45
2023/07/22 09:04:49;;;;;;;10.20;7.10;;;19.60;91.70;;;;;;4994238;28;20597;-46
2023/07/22 09:07:36;;;;;;;8.73;7.40;;;19.50;92.00;;;;;;4993190;28;20042;-50
2023/07/22 09:10:24;;;;;;;8.63;7.50;;;19.70;91.80;;;;;;4992450;28;20058;-46
2023/07/22 09:13:10;;;;;;;9.10;6.95;;;19.30;92.20;;;;;;4988922;28;20027;-49
2023/07/22 09:16:00;;;;;;;10.05;7.70;;;19.20;92.80;;;;;;4988377;28;20030;-47
2023/07/22 09:18:46;;;;;;;10.02;6.82;;;19.40;92.90;;;;;;4988441;28;20027;-44
2023/07/22 09:21:35;;;;;;;14.15;9.73;;;19.60;92.60;;;;;;4977886;28;20027;-46
2023/07/22 09:24:27;;;;;;;11.27;8.18;;;19.80;92.80;;;;;;4995100;28;20042;-46
2023/07/22 09:27:13;;;;;;;8.20;7.38;;;19.90;92.40;;;;;;4991600;28;20113;-50
2023/07/22 09:29:59;;;;;;;8.02;7.07;;;20.20;91.80;;;;;;4994415;28;20026;-45
2023/07/22 09:32:45;;;;;;;8.90;6.85;;;20.10;91.70;;;;;;4992697;28;20034;-44
2023/07/22 09:35:44;;;;;;;7.13;6.43;;;20.00;91.40;;;;;;4994537;28;20034;-45
2023/07/22 09:38:30;;;;;;;8.63;6.53;;;20.20;90.90;;;;;;4993604;28;20033;-46
2023/07/22 09:41:19;;;;;;;7.55;6.45;;;20.60;90.50;;;;;;4994311;28;20076;-45
2023/07/22 09:44:10;;;;;;;7.70;6.35;;;20.70;89.40;;;;;;4994365;28;20077;-45
2023/07/22 09:46:56;;;;;;;6.57;5.90;;;20.70;89.70;;;;;;4979750;28;20157;-44
2023/07/22 09:49:43;;;;;;;8.93;6.20;;;20.70;89.10;;;;;;4994195;28;20033;-45
2023/07/22 09:52:29;;;;;;;9.05;5.90;;;20.80;87.40;;;;;;4988004;28;20034;-44
2023/07/22 09:55:20;;;;;;;6.72;6.03;;;20.80;87.60;;;;;;4996278;28;20031;-45
2023/07/22 09:58:09;;;;;;;7.50;6.22;;;20.80;86.90;;;;;;4989988;28;20023;-45
2023/07/22 10:00:55;;;;;;;8.32;6.07;;;20.80;87.80;;;;;;4988486;28;20034;-46
2023/07/22 10:03:43;;;;;;;7.30;6.10;;;20.80;87.50;;;;;;4995685;28;20030;-47
2023/07/22 10:06:30;;;;;;;6.80;5.95;;;20.90;87.40;;;;;;4993385;28;20127;-48
2023/07/22 10:09:18;;;;;;;6.88;6.15;;;20.70;87.00;;;;;;4993701;28;20034;-48
2023/07/22 10:12:04;;;;;;;7.57;6.32;;;20.80;87.00;;;;;;4992490;28;20411;-48
2023/07/22 10:14:51;;;;;;;9.10;6.20;;;20.80;87.60;;;;;;4991238;28;20038;-46
2023/07/22 10:17:38;;;;;;;9.52;7.00;;;20.60;88.20;;;;;;4990098;28;20113;-45
2023/07/22 10:20:25;;;;;;;8.48;6.78;;;20.70;88.80;;;;;;4993926;28;20100;-47
2023/07/22 10:23:14;;;;;;;7.60;6.80;;;20.80;88.20;;;;;;4987653;28;20038;-45
2023/07/22 10:26:00;;;;;;;8.32;6.40;;;21.20;87.80;;;;;;4988002;28;20495;-44
2023/07/22 10:28:47;;;;;;;8.70;6.47;;;21.30;86.10;;;;;;4990585;28;20035;-46
2023/07/22 10:31:33;;;;;;;8.30;6.25;;;21.60;86.00;;;;;;4991839;28;20049;-43
2023/07/22 10:34:21;;;;;;;11.90;6.53;;;21.70;86.10;;;;;;4990859;28;20422;-46
2023/07/22 10:37:12;;;;;;;7.13;6.43;;;21.50;85.70;;;;;;4989396;28;20138;-46
2023/07/22 10:40:19;;;;;;;7.85;6.07;;;21.40;85.20;;;;;;4990170;28;20041;-43
2023/07/22 10:43:07;;;;;;;9.18;5.57;;;21.30;85.00;;;;;;4989497;28;20027;-43
2023/07/22 10:45:54;;;;;;;5.95;5.30;;;21.30;85.40;;;;;;4992193;28;20038;-46
2023/07/22 10:48:41;;;;;;;8.77;6.03;;;21.10;86.30;;;;;;4977415;28;20074;-51
2023/07/22 10:51:36;;;;;;;8.32;5.90;;;21.10;86.10;;;;;;4991544;28;20034;-46
2023/07/22 10:54:33;;;;;;;10.73;5.47;;;21.00;85.00;;;;;;4990348;28;20466;-46
2023/07/22 10:57:24;;;;;;;6.53;5.57;;;21.00;85.80;;;;;;4989363;28;20534;-63
2023/07/22 11:00:20;;;;;;;6.95;6.07;;;20.80;86.30;;;;;;4990132;28;20116;-47
2023/07/22 11:03:10;;;;;;;6.45;5.82;;;20.90;86.90;;;;;;4990393;28;20101;-48
2023/07/22 11:05:56;;;;;;;7.32;5.45;;;21.00;86.60;;;;;;4990540;28;20027;-58
2023/07/22 11:08:42;;;;;;;7.43;5.68;;;21.30;86.40;;;;;;4990601;28;20027;-56
2023/07/22 11:11:36;;;;;;;6.80;5.70;;;21.30;87.20;;;;;;4991177;28;20642;-44
2023/07/22 11:14:23;;;;;;;7.90;5.28;;;21.50;86.00;;;;;;4992828;28;20034;-44
2023/07/22 11:17:09;;;;;;;6.63;5.93;;;21.50;86.80;;;;;;4992846;28;20113;-52
2023/07/22 11:19:55;;;;;;;9.40;5.93;;;21.30;85.70;;;;;;4990975;28;20133;-46
2023/07/22 11:22:43;;;;;;;6.47;5.38;;;21.20;84.60;;;;;;4990566;28;20054;-48
2023/07/22 11:25:33;;;;;;;6.13;5.53;;;21.20;84.80;;;;;;4990344;28;20042;-50
2023/07/22 11:28:19;;;;;;;7.82;5.97;;;21.10;85.40;;;;;;4990147;28;20036;-46
2023/07/22 11:31:05;;;;;;;7.75;5.70;;;21.10;85.30;;;;;;4986771;28;20042;-50
2023/07/22 11:33:51;;;;;;;8.18;5.82;;;21.10;84.30;;;;;;4990476;28;20372;-49
2023/07/22 11:36:37;;;;;;;6.63;5.43;;;21.10;84.70;;;;;;4990662;28;20121;-46
2023/07/22 11:39:31;;;;;;;7.03;6.25;;;21.00;85.00;;;;;;4986862;28;20506;-46
2023/07/22 11:42:17;;;;;;;8.18;6.43;;;20.90;85.90;;;;;;4989657;28;20031;-48
2023/07/22 11:45:05;;;;;;;8.55;6.10;;;21.10;84.40;;;;;;4991201;28;20069;-43
2023/07/22 11:47:51;;;;;;;6.80;6.10;;;21.10;84.40;;;;;;4990108;28;20038;-44
2023/07/22 11:50:37;;;;;;;6.95;5.93;;;21.00;84.10;;;;;;4993010;28;20034;-43
2023/07/22 11:53:29;;;;;;;8.13;5.85;;;21.00;84.40;;;;;;4976935;28;20494;-45
2023/07/22 11:56:27;;;;;;;7.00;6.30;;;20.90;84.90;;;;;;4987905;28;20026;-44
2023/07/22 11:59:13;;;;;;;7.43;6.25;;;20.80;85.60;;;;;;4995665;28;20065;-45
2023/07/22 12:02:01;;;;;;;9.43;6.00;;;20.90;85.30;;;;;;4996356;28;20027;-63
2023/07/22 12:04:57;;;;;;;10.00;6.25;;;21.10;85.10;;;;;;4995002;28;20034;-49
2023/07/22 12:07:43;;;;;;;7.10;6.40;;;21.10;85.60;;;;;;4974759;28;20030;-48
2023/07/22 12:10:28;;;;;;;7.47;6.65;;;21.10;85.50;;;;;;4990193;28;20061;-46
2023/07/22 12:13:14;;;;;;;8.98;7.10;;;21.40;84.90;;;;;;4995933;28;20038;-49
2023/07/22 12:16:05;;;;;;;8.50;6.53;;;21.30;84.20;;;;;;4995552;28;20050;-47
2023/07/22 12:18:54;;;;;;;8.20;6.78;;;21.30;84.40;;;;;;4996041;28;20077;-44
2023/07/22 12:21:40;;;;;;;7.28;6.57;;;21.20;84.40;;;;;;4996050;28;20022;-42
2023/07/22 12:24:28;;;;;;;6.97;6.28;;;21.40;84.10;;;;;;4995661;28;20049;-43
2023/07/22 12:27:13;;;;;;;10.57;7.22;;;21.50;84.40;;;;;;4994533;28;20080;-46
2023/07/22 12:30:00;;;;;;;8.65;6.82;;;21.60;83.40;;;;;;4995680;28;20084;-49
2023/07/22 12:32:47;;;;;;;7.40;6.47;;;21.70;82.70;;;;;;4995861;28;20038;-47
2023/07/22 12:35:33;;;;;;;7.65;6.85;;;21.70;82.50;;;;;;4995220;28;20034;-49
2023/07/22 12:38:19;;;;;;;7.20;6.50;;;21.80;82.70;;;;;;4994206;28;20109;-45
2023/07/22 12:41:05;;;;;;;7.18;6.47;;;21.80;82.40;;;;;;4995258;28;20487;-48
2023/07/22 12:43:51;;;;;;;6.95;6.25;;;21.80;82.70;;;;;;4995787;28;20555;-43
2023/07/22 12:46:37;;;;;;;7.25;6.55;;;21.90;82.90;;;;;;4994180;28;20085;-46
2023/07/22 12:49:23;;;;;;;8.10;7.30;;;22.00;81.50;;;;;;4995650;28;20035;-45
2023/07/22 12:52:10;;;;;;;7.35;6.53;;;22.10;81.70;;;;;;4994546;28;20110;-48
2023/07/22 12:54:56;;;;;;;8.70;6.95;;;22.10;81.40;;;;;;4995402;28;20117;-43
2023/07/22 12:57:42;;;;;;;7.50;6.50;;;21.90;82.00;;;;;;4994384;28;20028;-46
2023/07/22 13:00:28;;;;;;;8.02;6.53;;;22.10;82.10;;;;;;4995037;28;20022;-49
2023/07/22 13:03:14;;;;;;;8.50;7.07;;;22.40;80.70;;;;;;4995013;28;20614;-49
2023/07/22 13:06:00;;;;;;;7.72;6.90;;;22.70;80.50;;;;;;4993732;28;20053;-49
2023/07/22 13:08:46;;;;;;;7.88;7.15;;;22.80;80.30;;;;;;4995284;28;20022;-46
2023/07/22 13:11:32;;;;;;;7.43;6.60;;;22.90;79.90;;;;;;4994291;28;20085;-44
2023/07/22 13:14:18;;;;;;;7.50;6.07;;;23.00;78.80;;;;;;4992969;28;20039;-46
2023/07/22 13:17:04;;;;;;;7.25;6.40;;;23.30;78.30;;;;;;4994894;28;20033;-43
2023/07/22 13:19:50;;;;;;;8.35;6.78;;;23.50;78.60;;;;;;4995585;28;20090;-46
2023/07/22 13:22:36;;;;;;;7.30;6.60;;;23.50;77.40;;;;;;4993774;28;20022;-43
2023/07/22 13:25:22;;;;;;;7.20;6.32;;;23.40;77.30;;;;;;4994375;28;20081;-47
2023/07/22 13:28:08;;;;;;;7.43;6.20;;;23.50;77.10;;;;;;4994528;28;20410;-46
2023/07/22 13:30:54;;;;;;;12.98;6.97;;;24.00;75.50;;;;;;4994911;28;20483;-47
2023/07/22 13:33:40;;;;;;;8.40;6.85;;;24.10;76.10;;;;;;4994563;28;20026;-43
2023/07/22 13:36:26;;;;;;;7.82;6.40;;;23.60;75.50;;;;;;4993789;28;20527;-48
2023/07/22 13:39:12;;;;;;;7.72;6.93;;;23.60;76.10;;;;;;4994719;28;20105;-46
2023/07/22 13:41:58;;;;;;;6.85;6.15;;;23.60;75.80;;;;;;4994662;28;20510;-45
2023/07/22 13:44:44;;;;;;;8.02;6.15;;;23.70;76.10;;;;;;4994761;28;20458;-43
2023/07/22 13:47:30;;;;;;;7.50;6.03;;;24.10;74.50;;;;;;4994116;28;20042;-48
2023/07/22 13:50:16;;;;;;;7.25;6.45;;;24.30;72.80;;;;;;4993864;28;20515;-48
2023/07/22 13:53:01;;;;;;;8.13;6.20;;;24.20;72.80;;;;;;4994421;28;20034;-51
2023/07/22 13:55:47;;;;;;;7.95;6.70;;;24.20;73.60;;;;;;4994477;28;20073;-49
2023/07/22 13:58:33;;;;;;;7.10;6.38;;;24.00;73.40;;;;;;4994204;28;20101;-49
2023/07/22 14:01:19;;;;;;;7.68;6.10;;;23.80;74.30;;;;;;4993561;28;20033;-44
2023/07/22 14:04:05;;;;;;;9.88;7.05;;;24.10;72.80;;;;;;4993634;28;20041;-49
2023/07/22 14:06:51;;;;;;;7.85;6.68;;;24.50;71.80;;;;;;4994405;28;20559;-43
2023/07/22 14:09:37;;;;;;;7.00;5.70;;;24.60;71.80;;;;;;4993433;28;20041;-43
2023/07/22 14:12:23;;;;;;;8.63;6.25;;;24.60;72.30;;;;;;4993521;28;20026;-44
2023/07/22 14:15:10;;;;;;;8.70;6.20;;;24.80;71.60;;;;;;4992867;28;20038;-45
2023/07/22 14:17:56;;;;;;;6.88;5.80;;;25.20;70.70;;;;;;4993671;28;20031;-47